Time;durP1;ratioP1;P1;durP2;ratioP2;P2;SDS_P1;SDS_P2;PMS_P1;PMS_P2;Temp;Humidity;BMP_temperature;BMP_pressure;BME280_temperature;BME280_humidity;BME280_pressure;Samples;Min_cycle;Max_cycle;Signal;HPM_P1;HPM_P2
2024/02/26 00:00:35;;;;;;;20.52;18.52;;;5.10;1.00;;;;;;5108655;27;20239;-79
2024/02/26 00:03:02;;;;;;;20.77;18.70;;;5.10;1.00;;;;;;5104883;27;21050;-77
2024/02/26 00:05:32;;;;;;;17.65;15.85;;;5.00;1.00;;;;;;5103825;27;20336;-78
2024/02/26 00:07:59;;;;;;;20.10;18.00;;;5.00;1.00;;;;;;5102117;27;20233;-79
2024/02/26 00:10:26;;;;;;;20.10;18.00;;;5.00;1.00;;;;;;5103084;27;20241;-76
2024/02/26 00:12:53;;;;;;;20.17;18.20;;;4.90;1.00;;;;;;5088181;28;20290;-77
2024/02/26 00:15:21;;;;;;;20.52;18.33;;;4.90;1.00;;;;;;5087452;27;20306;-77
2024/02/26 00:17:48;;;;;;;18.92;17.23;;;4.90;1.00;;;;;;5094812;27;20327;-76
2024/02/26 00:20:15;;;;;;;18.55;16.67;;;4.90;1.00;;;;;;5086044;28;20264;-77
2024/02/26 00:22:42;;;;;;;17.98;16.20;;;5.00;1.00;;;;;;5088951;28;20356;-77
2024/02/26 00:25:09;;;;;;;17.67;15.88;;;5.00;1.00;;;;;;5091056;27;20248;-76
2024/02/26 00:27:36;;;;;;;20.02;16.58;;;5.00;1.00;;;;;;5088704;28;20418;-78
2024/02/26 00:30:03;;;;;;;16.60;15.10;;;4.90;1.00;;;;;;5086786;28;20347;-76
2024/02/26 00:32:32;;;;;;;15.63;14.23;;;4.80;1.00;;;;;;5092668;27;20320;-75
2024/02/26 00:34:59;;;;;;;18.40;16.52;;;4.80;1.00;;;;;;5102518;27;20294;-79
2024/02/26 00:37:26;;;;;;;17.67;15.02;;;4.60;1.00;;;;;;5095243;27;20297;-78
2024/02/26 00:39:53;;;;;;;14.43;13.13;;;4.60;1.00;;;;;;5090260;28;20271;-77
2024/02/26 00:42:20;;;;;;;13.25;12.05;;;4.60;1.00;;;;;;5085362;28;20237;-77
2024/02/26 00:44:47;;;;;;;13.02;11.75;;;4.70;1.00;;;;;;5084442;28;20327;-79
2024/02/26 00:47:16;;;;;;;14.43;13.07;;;4.70;1.00;;;;;;5078245;28;20256;-77
2024/02/26 00:49:45;;;;;;;15.88;14.48;;;4.60;1.00;;;;;;5104345;27;20283;-74
2024/02/26 00:52:12;;;;;;;14.20;12.80;;;4.60;1.00;;;;;;5085948;28;22027;-75
2024/02/26 00:54:39;;;;;;;12.98;11.68;;;4.60;1.00;;;;;;5088885;28;20308;-78
2024/02/26 00:57:06;;;;;;;12.40;11.10;;;4.60;1.00;;;;;;5089919;28;20246;-78
2024/02/26 00:59:35;;;;;;;11.95;10.85;;;4.50;1.00;;;;;;5093473;27;20322;-74
2024/02/26 01:02:04;;;;;;;11.23;10.13;;;4.50;1.00;;;;;;5091314;27;20237;-72
2024/02/26 01:04:31;;;;;;;12.60;11.40;;;4.50;1.00;;;;;;5084623;27;20241;-73
2024/02/26 01:07:03;;;;;;;12.75;11.70;;;4.50;1.00;;;;;;5092515;27;20239;-73
2024/02/26 01:09:29;;;;;;;12.40;10.93;;;4.50;1.00;;;;;;5069723;28;20241;-74
2024/02/26 01:11:56;;;;;;;16.23;11.20;;;4.50;1.00;;;;;;5086170;28;20822;-75
2024/02/26 01:14:23;;;;;;;11.20;10.10;;;4.50;1.00;;;;;;5087138;27;20314;-73
2024/02/26 01:16:50;;;;;;;11.35;10.25;;;4.50;1.00;;;;;;5094168;27;20235;-73
2024/02/26 01:19:17;;;;;;;11.90;10.80;;;4.40;1.00;;;;;;5089082;28;20243;-73
2024/02/26 01:21:44;;;;;;;10.90;10.00;;;4.30;1.00;;;;;;5106440;27;20241;-75
2024/02/26 01:24:12;;;;;;;12.20;11.00;;;4.30;1.00;;;;;;5112454;27;20322;-73
2024/02/26 01:26:40;;;;;;;12.75;10.40;;;4.30;1.00;;;;;;5088439;28;20235;-73
2024/02/26 01:29:07;;;;;;;11.32;10.30;;;4.30;1.00;;;;;;5087706;28;20391;-72
2024/02/26 01:31:34;;;;;;;11.50;10.38;;;4.30;1.00;;;;;;5089312;28;20242;-73
2024/02/26 01:34:00;;;;;;;12.27;11.07;;;4.30;1.00;;;;;;5099301;27;20236;-72
2024/02/26 01:36:27;;;;;;;11.57;10.40;;;4.30;1.00;;;;;;5097940;27;20308;-73
2024/02/26 01:38:54;;;;;;;11.85;10.65;;;4.40;1.00;;;;;;5099094;27;20250;-72
2024/02/26 01:41:23;;;;;;;11.85;10.75;;;4.30;1.00;;;;;;5108677;27;20247;-73
2024/02/26 01:43:50;;;;;;;11.77;10.60;;;4.20;1.00;;;;;;5095006;27;20232;-74
2024/02/26 01:46:18;;;;;;;11.15;10.05;;;4.20;1.00;;;;;;5088849;28;20231;-73
2024/02/26 01:48:47;;;;;;;10.70;9.70;;;4.20;1.00;;;;;;5095942;27;20696;-73
2024/02/26 01:51:17;;;;;;;11.73;10.52;;;4.10;1.00;;;;;;5097327;27;20316;-73
2024/02/26 01:53:45;;;;;;;11.00;10.07;;;4.20;1.00;;;;;;5112982;27;20792;-74
2024/02/26 01:56:12;;;;;;;11.50;10.05;;;4.20;1.00;;;;;;5086392;27;20243;-73
2024/02/26 01:58:41;;;;;;;12.80;11.60;;;4.00;1.00;;;;;;5100692;27;20244;-73
2024/02/26 02:01:09;;;;;;;11.45;10.45;;;4.00;1.00;;;;;;5105501;27;20689;-77
2024/02/26 02:03:37;;;;;;;11.82;10.93;;;4.00;1.00;;;;;;5092894;27;20235;-73
2024/02/26 02:06:06;;;;;;;11.70;10.50;;;4.00;1.00;;;;;;5093268;27;21100;-73
2024/02/26 02:08:35;;;;;;;12.35;11.25;;;3.90;1.00;;;;;;5091475;27;20241;-77
2024/02/26 02:11:02;;;;;;;11.88;10.77;;;3.90;1.00;;;;;;5096959;28;20335;-76
2024/02/26 02:13:29;;;;;;;13.00;10.52;;;3.90;1.00;;;;;;5103273;28;20272;-77
2024/02/26 02:15:57;;;;;;;11.07;10.15;;;3.90;1.00;;;;;;5095826;28;20258;-75
2024/02/26 02:18:24;;;;;;;12.40;11.20;;;3.80;1.00;;;;;;5105994;27;20249;-75
2024/02/26 02:20:56;;;;;;;11.80;10.75;;;3.80;1.00;;;;;;5102573;27;20445;-77
2024/02/26 02:23:22;;;;;;;11.60;10.38;;;3.80;1.00;;;;;;5102752;27;20224;-74
2024/02/26 02:25:49;;;;;;;11.85;10.65;;;3.90;1.00;;;;;;5097368;28;21060;-77
2024/02/26 02:28:17;;;;;;;10.25;9.45;;;3.90;1.00;;;;;;5093058;28;21110;-77
2024/02/26 02:30:44;;;;;;;9.85;8.85;;;3.90;1.00;;;;;;5105754;27;21075;-75
2024/02/26 02:33:15;;;;;;;9.40;8.60;;;3.90;1.00;;;;;;5098832;28;20224;-75
2024/02/26 02:35:42;;;;;;;9.15;8.35;;;3.90;1.00;;;;;;5093577;28;20294;-76
2024/02/26 02:38:10;;;;;;;9.35;8.23;;;3.90;1.00;;;;;;5094699;28;20242;-76
2024/02/26 02:40:37;;;;;;;7.78;7.07;;;3.80;1.00;;;;;;5094338;28;20294;-76
2024/02/26 02:43:04;;;;;;;8.35;7.65;;;3.80;1.00;;;;;;5093300;28;20236;-76
2024/02/26 02:45:31;;;;;;;8.02;7.22;;;3.70;1.00;;;;;;5094282;28;20262;-76
2024/02/26 02:47:58;;;;;;;7.90;7.22;;;3.70;1.00;;;;;;5102781;27;20243;-75
2024/02/26 02:50:25;;;;;;;7.28;6.57;;;3.70;1.00;;;;;;5109380;27;20298;-76
2024/02/26 02:52:53;;;;;;;7.55;6.95;;;3.70;1.00;;;;;;5118028;27;20215;-76
2024/02/26 02:55:21;;;;;;;8.93;8.02;;;3.60;1.00;;;;;;5116424;27;20266;-76
2024/02/26 02:57:48;;;;;;;8.13;7.43;;;3.60;1.00;;;;;;5113594;27;20258;-76
2024/02/26 03:00:16;;;;;;;7.55;6.85;;;3.60;1.00;;;;;;5119315;27;20240;-75
2024/02/26 03:02:44;;;;;;;11.88;7.43;;;3.60;1.00;;;;;;5115786;27;20238;-77
2024/02/26 03:05:12;;;;;;;7.75;7.10;;;3.60;1.00;;;;;;5104153;27;20291;-76
2024/02/26 03:07:39;;;;;;;7.82;7.03;;;3.60;1.00;;;;;;5101538;27;20263;-75
2024/02/26 03:10:07;;;;;;;9.13;8.20;;;3.50;1.00;;;;;;5111344;27;20266;-77
2024/02/26 03:12:35;;;;;;;7.43;6.82;;;3.50;1.00;;;;;;5112530;27;20238;-75
2024/02/26 03:15:04;;;;;;;8.30;7.50;;;3.50;1.00;;;;;;5112326;27;20235;-75
2024/02/26 03:17:31;;;;;;;9.20;8.38;;;3.50;1.00;;;;;;5112091;27;20609;-75
2024/02/26 03:19:58;;;;;;;9.40;7.28;;;3.50;1.00;;;;;;5113373;27;20275;-77
2024/02/26 03:22:25;;;;;;;9.02;8.23;;;3.50;1.00;;;;;;5106379;27;20270;-79
2024/02/26 03:24:52;;;;;;;9.02;8.23;;;3.50;1.00;;;;;;5109585;27;20368;-77
2024/02/26 03:27:18;;;;;;;9.15;8.25;;;3.50;1.00;;;;;;5098809;27;21014;-77
2024/02/26 03:29:47;;;;;;;11.32;8.80;;;3.50;1.00;;;;;;5080660;27;20239;-76
2024/02/26 03:32:14;;;;;;;8.85;8.13;;;3.40;1.00;;;;;;5101516;27;20322;-78
2024/02/26 03:34:41;;;;;;;10.20;8.05;;;3.30;1.00;;;;;;5096515;27;20256;-79
2024/02/26 03:37:10;;;;;;;9.05;8.15;;;3.30;1.00;;;;;;5096532;27;20733;-75
2024/02/26 03:39:37;;;;;;;8.52;7.82;;;3.30;1.00;;;;;;5094860;27;20242;-77
2024/02/26 03:42:04;;;;;;;9.00;7.85;;;3.30;1.00;;;;;;5108135;27;21025;-79
2024/02/26 03:44:31;;;;;;;10.55;9.55;;;3.30;1.00;;;;;;5108559;27;20301;-77
2024/02/26 03:46:59;;;;;;;8.93;7.70;;;3.30;1.00;;;;;;5108074;27;21040;-79
2024/02/26 03:49:26;;;;;;;9.32;8.50;;;3.30;1.00;;;;;;5110195;27;20334;-76
2024/02/26 03:51:53;;;;;;;11.00;7.70;;;3.30;1.00;;;;;;5109443;27;20219;-78
2024/02/26 03:54:20;;;;;;;10.65;9.55;;;3.30;1.00;;;;;;5109408;27;20324;-77
2024/02/26 03:56:47;;;;;;;10.25;9.25;;;3.30;1.00;;;;;;5111122;27;20321;-76
2024/02/26 03:59:14;;;;;;;9.88;8.93;;;3.30;1.00;;;;;;5109687;27;20240;-77
2024/02/26 04:01:45;;;;;;;10.75;9.55;;;3.30;1.00;;;;;;5109104;27;20231;-75
2024/02/26 04:04:13;;;;;;;10.32;8.75;;;3.30;1.00;;;;;;5109948;27;20296;-77
2024/02/26 04:06:40;;;;;;;10.40;9.50;;;3.30;1.00;;;;;;5095865;27;20321;-78
2024/02/26 04:09:09;;;;;;;11.00;9.70;;;3.40;1.00;;;;;;5087246;28;21880;-76
2024/02/26 04:11:36;;;;;;;12.30;9.75;;;3.30;1.00;;;;;;5106617;27;20224;-77
2024/02/26 04:14:03;;;;;;;12.55;10.45;;;3.40;1.00;;;;;;5098269;27;20309;-78
2024/02/26 04:16:30;;;;;;;12.35;10.82;;;3.40;1.00;;;;;;5098798;27;20322;-78
2024/02/26 04:18:57;;;;;;;13.45;10.35;;;3.40;1.00;;;;;;5095748;27;20240;-75
2024/02/26 04:21:26;;;;;;;13.00;10.82;;;3.40;1.00;;;;;;5098033;27;20275;-77
2024/02/26 04:23:54;;;;;;;11.75;10.65;;;3.40;1.00;;;;;;5092437;28;20347;-77
2024/02/26 04:26:22;;;;;;;11.32;9.43;;;3.40;1.00;;;;;;5092842;27;20318;-77
2024/02/26 04:28:48;;;;;;;13.93;11.30;;;3.40;1.00;;;;;;5112850;27;20269;-78
2024/02/26 04:31:15;;;;;;;11.00;9.90;;;3.40;1.00;;;;;;5107886;27;20294;-77
2024/02/26 04:33:45;;;;;;;15.18;12.52;;;3.30;1.00;;;;;;5108169;27;20251;-74
2024/02/26 04:36:15;;;;;;;20.60;13.13;;;3.30;1.00;;;;;;5107911;27;20246;-77
2024/02/26 04:38:43;;;;;;;13.10;11.68;;;3.30;1.00;;;;;;5110830;27;20249;-76
2024/02/26 04:41:10;;;;;;;12.50;10.90;;;3.30;1.00;;;;;;5107248;27;20888;-76
2024/02/26 04:43:41;;;;;;;12.95;10.95;;;3.30;1.00;;;;;;5108874;27;20242;-77
2024/02/26 04:46:08;;;;;;;12.65;11.30;;;3.20;1.00;;;;;;5110042;27;20826;-78
2024/02/26 04:48:35;;;;;;;14.85;13.27;;;3.20;1.00;;;;;;5085871;28;20232;-77
2024/02/26 04:51:03;;;;;;;16.13;12.52;;;3.20;1.00;;;;;;5095941;27;20778;-79
2024/02/26 04:53:30;;;;;;;17.30;12.45;;;3.30;1.00;;;;;;5089488;27;20749;-77
2024/02/26 04:55:58;;;;;;;14.90;12.75;;;3.30;1.00;;;;;;5082010;28;20244;-77
2024/02/26 04:58:25;;;;;;;13.52;12.07;;;3.20;1.00;;;;;;5096346;27;20240;-78
2024/02/26 05:00:53;;;;;;;17.10;14.75;;;3.20;1.00;;;;;;5093563;28;20220;-77
2024/02/26 05:03:20;;;;;;;16.67;13.70;;;3.30;1.00;;;;;;5082769;27;20238;-74
2024/02/26 05:05:47;;;;;;;13.60;12.02;;;3.30;1.00;;;;;;5084105;28;20302;-76
2024/02/26 05:08:14;;;;;;;14.68;12.43;;;3.30;1.00;;;;;;5088934;27;22515;-76
2024/02/26 05:10:43;;;;;;;14.50;12.85;;;3.40;1.00;;;;;;5101667;27;21137;-77
2024/02/26 05:13:11;;;;;;;15.57;12.50;;;3.40;1.00;;;;;;5089077;27;20290;-76
2024/02/26 05:15:38;;;;;;;14.30;12.80;;;3.40;1.00;;;;;;5093069;28;20294;-76
2024/02/26 05:18:07;;;;;;;16.75;14.88;;;3.50;1.00;;;;;;5102770;27;22002;-77
2024/02/26 05:20:35;;;;;;;18.85;12.85;;;3.50;1.00;;;;;;5109235;27;20245;-77
2024/02/26 05:23:03;;;;;;;14.80;13.30;;;3.60;1.00;;;;;;5091591;28;20736;-78
2024/02/26 05:25:31;;;;;;;15.18;12.70;;;3.60;1.00;;;;;;5093094;28;20242;-77
2024/02/26 05:27:58;;;;;;;19.30;14.27;;;3.60;1.00;;;;;;5102351;27;20240;-75
2024/02/26 05:30:28;;;;;;;18.77;13.82;;;3.70;1.00;;;;;;5101105;27;20235;-76
2024/02/26 05:32:55;;;;;;;19.80;14.70;;;3.70;1.00;;;;;;5104562;27;20319;-75
2024/02/26 05:35:24;;;;;;;18.85;13.15;;;3.70;1.00;;;;;;5095320;28;21006;-75
2024/02/26 05:37:51;;;;;;;19.10;13.70;;;3.70;1.00;;;;;;5096140;27;20243;-76
2024/02/26 05:40:18;;;;;;;18.30;15.15;;;3.70;1.00;;;;;;5087528;28;20236;-74
2024/02/26 05:42:46;;;;;;;17.48;13.77;;;3.70;1.00;;;;;;5091452;28;20314;-75
2024/02/26 05:45:13;;;;;;;15.40;13.80;;;3.70;1.00;;;;;;5093000;28;20289;-76
2024/02/26 05:47:42;;;;;;;17.05;13.75;;;3.80;1.00;;;;;;5091203;28;20258;-75
2024/02/26 05:50:10;;;;;;;19.95;15.32;;;3.80;1.00;;;;;;5096296;27;20251;-73
2024/02/26 05:52:38;;;;;;;17.67;15.05;;;3.80;1.00;;;;;;5091017;28;20251;-74
2024/02/26 05:55:06;;;;;;;18.73;14.82;;;3.80;1.00;;;;;;5094699;27;20268;-75
2024/02/26 05:57:33;;;;;;;19.98;15.05;;;3.80;1.00;;;;;;5098862;27;20723;-75
2024/02/26 06:00:03;;;;;;;19.83;14.93;;;3.80;1.00;;;;;;5091568;28;20240;-75
2024/02/26 06:02:30;;;;;;;17.13;15.15;;;3.80;1.00;;;;;;5097066;27;20769;-79
2024/02/26 06:04:59;;;;;;;18.98;15.13;;;3.80;1.00;;;;;;5099887;27;20305;-76
2024/02/26 06:07:26;;;;;;;22.45;16.58;;;3.90;1.00;;;;;;5111102;27;20231;-75
2024/02/26 06:09:53;;;;;;;19.80;17.67;;;3.90;1.00;;;;;;5113249;27;20220;-75
2024/02/26 06:12:20;;;;;;;22.33;16.15;;;4.00;1.00;;;;;;5097282;28;20309;-76
2024/02/26 06:14:47;;;;;;;17.65;15.80;;;4.00;1.00;;;;;;5097889;27;20254;-75
2024/02/26 06:17:19;;;;;;;20.20;17.80;;;4.00;1.00;;;;;;5094153;27;20236;-76
2024/02/26 06:19:48;;;;;;;18.02;16.13;;;4.00;1.00;;;;;;5094313;28;20242;-76
2024/02/26 06:22:17;;;;;;;25.90;18.15;;;4.10;1.00;;;;;;5093428;28;20232;-74
2024/02/26 06:24:43;;;;;;;20.75;15.57;;;4.20;1.00;;;;;;5092218;28;20244;-75
2024/02/26 06:27:12;;;;;;;22.63;18.10;;;4.20;1.00;;;;;;5109037;27;20228;-74
2024/02/26 06:29:41;;;;;;;22.73;16.65;;;4.30;1.00;;;;;;5092937;28;20233;-77
2024/02/26 06:32:08;;;;;;;19.45;17.35;;;4.60;1.00;;;;;;5101001;27;20248;-77
2024/02/26 06:34:35;;;;;;;22.05;16.52;;;4.60;1.00;;;;;;5106031;27;20243;-77
2024/02/26 06:37:03;;;;;;;34.85;21.83;;;4.80;1.00;;;;;;5100705;27;20250;-76
2024/02/26 06:39:31;;;;;;;18.25;16.40;;;4.80;1.00;;;;;;5089467;28;20235;-75
2024/02/26 06:42:00;;;;;;;18.92;14.70;;;4.80;1.00;;;;;;5102118;27;20288;-75
2024/02/26 06:44:31;;;;;;;19.15;15.95;;;4.90;1.00;;;;;;5092589;28;20240;-76
2024/02/26 06:46:59;;;;;;;23.15;17.15;;;5.00;1.00;;;;;;5093768;28;20241;-76
2024/02/26 06:49:26;;;;;;;19.27;15.35;;;5.00;1.00;;;;;;5096393;27;20423;-76
2024/02/26 06:51:53;;;;;;;18.13;16.00;;;5.10;1.00;;;;;;5096853;27;20625;-76
2024/02/26 06:54:21;;;;;;;17.67;15.57;;;5.10;1.00;;;;;;5099852;27;20310;-76
2024/02/26 06:56:51;;;;;;;19.33;16.20;;;5.10;1.00;;;;;;5094600;28;20238;-80
2024/02/26 06:59:19;;;;;;;17.98;16.08;;;5.10;1.00;;;;;;5111817;27;20240;-78
2024/02/26 07:01:47;;;;;;;25.13;16.63;;;5.00;1.00;;;;;;5090855;28;20232;-79
2024/02/26 07:04:14;;;;;;;19.38;16.40;;;5.10;1.00;;;;;;5092829;28;20260;-78
2024/02/26 07:06:41;;;;;;;18.02;16.10;;;5.10;1.00;;;;;;5099260;27;20227;-78
2024/02/26 07:09:12;;;;;;;16.17;14.48;;;5.20;1.00;;;;;;5104722;27;20221;-78
2024/02/26 07:11:41;;;;;;;17.95;16.17;;;5.20;1.00;;;;;;5109434;27;20917;-76
2024/02/26 07:14:10;;;;;;;21.63;17.58;;;5.20;1.00;;;;;;5106813;28;20232;-78
2024/02/26 07:16:38;;;;;;;19.83;15.90;;;5.30;1.00;;;;;;5102692;28;20255;-79
2024/02/26 07:19:05;;;;;;;20.85;15.10;;;5.30;1.00;;;;;;5110688;27;20233;-77
2024/02/26 07:21:34;;;;;;;23.63;18.55;;;5.40;1.00;;;;;;5102717;27;20239;-82
2024/02/26 07:24:04;;;;;;;22.75;16.90;;;5.50;1.00;;;;;;5122779;27;20232;-79
2024/02/26 07:26:31;;;;;;;24.98;16.63;;;5.60;1.00;;;;;;5114968;28;20288;-80
2024/02/26 07:28:59;;;;;;;34.75;27.27;;;5.50;1.00;;;;;;5114444;28;20224;-77
2024/02/26 07:31:30;;;;;;;18.85;16.80;;;5.60;1.00;;;;;;5122415;27;20236;-78
2024/02/26 07:33:57;;;;;;;17.42;15.60;;;5.70;1.00;;;;;;5112982;27;20252;-80
2024/02/26 07:36:24;;;;;;;27.25;16.98;;;5.80;1.00;;;;;;5105752;28;20916;-78
2024/02/26 07:38:54;;;;;;;19.40;15.85;;;5.80;1.00;;;;;;5117881;27;20388;-78
2024/02/26 07:41:21;;;;;;;20.38;16.17;;;5.90;1.00;;;;;;5091929;28;20711;-79
2024/02/26 07:43:50;;;;;;;28.77;21.33;;;6.00;1.00;;;;;;5088978;28;20733;-75
2024/02/26 07:46:18;;;;;;;19.17;16.98;;;6.10;1.00;;;;;;5094071;28;20240;-76
2024/02/26 07:48:47;;;;;;;20.37;17.63;;;6.20;1.00;;;;;;5094691;28;20234;-79
2024/02/26 07:51:15;;;;;;;23.92;16.73;;;6.30;1.00;;;;;;5114630;27;20439;-78
2024/02/26 07:53:42;;;;;;;28.65;19.45;;;6.30;1.00;;;;;;5111515;27;20302;-76
2024/02/26 07:56:10;;;;;;;20.38;17.50;;;6.50;1.00;;;;;;5107663;27;20230;-78
2024/02/26 07:58:37;;;;;;;20.15;16.73;;;6.80;1.00;;;;;;5111048;27;20246;-72
2024/02/26 08:01:05;;;;;;;18.33;16.40;;;6.90;1.00;;;;;;5092997;28;20718;-75
2024/02/26 08:03:33;;;;;;;20.23;17.57;;;7.10;1.00;;;;;;5093546;28;20246;-75
2024/02/26 08:06:02;;;;;;;28.83;18.80;;;7.20;1.00;;;;;;5097767;27;20484;-76
2024/02/26 08:08:29;;;;;;;21.93;16.70;;;7.30;1.00;;;;;;5102176;28;21155;-74
2024/02/26 08:11:00;;;;;;;20.23;17.13;;;7.50;1.00;;;;;;5091070;28;21296;-75
2024/02/26 08:13:27;;;;;;;19.55;17.50;;;7.60;1.00;;;;;;5095187;27;20691;-72
2024/02/26 08:15:54;;;;;;;20.63;17.90;;;7.70;1.00;;;;;;5102328;27;20238;-74
2024/02/26 08:18:21;;;;;;;26.20;17.80;;;7.70;1.00;;;;;;5089950;28;20506;-75
2024/02/26 08:20:49;;;;;;;23.63;19.57;;;7.80;1.00;;;;;;5090884;28;20482;-74
2024/02/26 08:23:17;;;;;;;21.73;19.27;;;7.80;1.00;;;;;;5093439;28;20446;-75
2024/02/26 08:25:45;;;;;;;19.87;17.80;;;8.00;1.00;;;;;;5091211;28;21287;-74
2024/02/26 08:28:13;;;;;;;23.83;18.67;;;8.10;1.00;;;;;;5091184;28;20471;-74
2024/02/26 08:30:40;;;;;;;19.73;17.80;;;8.20;1.00;;;;;;5088842;28;20476;-72
2024/02/26 08:33:07;;;;;;;18.40;15.77;;;8.30;1.00;;;;;;5089728;28;20459;-72
2024/02/26 08:35:34;;;;;;;19.57;17.47;;;8.40;1.00;;;;;;5088886;28;20508;-72
2024/02/26 08:38:01;;;;;;;23.93;18.60;;;8.60;1.00;;;;;;5087572;28;20474;-75
2024/02/26 08:40:30;;;;;;;18.67;16.70;;;8.80;1.00;;;;;;5105972;27;20441;-75
2024/02/26 08:42:57;;;;;;;29.87;18.37;;;9.10;1.00;;;;;;5084781;27;21311;-76
2024/02/26 08:45:27;;;;;;;28.40;18.53;;;9.40;1.00;;;;;;5113393;27;21004;-76
2024/02/26 08:47:53;;;;;;;25.93;19.10;;;9.70;1.00;;;;;;5096700;28;20470;-77
2024/02/26 08:50:20;;;;;;;21.60;17.70;;;9.90;1.00;;;;;;5078727;28;20558;-75
2024/02/26 08:52:50;;;;;;;21.47;17.60;;;10.30;1.00;;;;;;5092848;28;20471;-74
2024/02/26 08:55:17;;;;;;;21.63;16.23;;;11.10;1.00;;;;;;5087298;28;20455;-73
2024/02/26 08:57:48;;;;;;;25.13;18.67;;;11.60;1.00;;;;;;5088995;28;20563;-73
2024/02/26 09:00:17;;;;;;;32.80;17.13;;;12.30;1.00;;;;;;5084773;28;20474;-73
2024/02/26 09:02:45;;;;;;;21.07;16.67;;;12.90;1.00;;;;;;5088204;28;20845;-75
2024/02/26 09:05:12;;;;;;;18.17;16.50;;;13.40;1.00;;;;;;5089615;28;20468;-73
2024/02/26 09:07:39;;;;;;;18.87;17.00;;;14.10;1.00;;;;;;5087018;28;20469;-79
2024/02/26 09:10:09;;;;;;;18.13;15.90;;;14.70;1.00;;;;;;5097761;27;20515;-79
2024/02/26 09:12:35;;;;;;;20.40;15.80;;;15.70;1.00;;;;;;5093671;28;20472;-78
2024/02/26 09:15:05;;;;;;;18.40;16.70;;;16.50;1.00;;;;;;5091132;28;20479;-80
2024/02/26 09:17:32;;;;;;;18.80;16.80;;;16.60;1.00;;;;;;5091909;28;20466;-77
2024/02/26 09:19:59;;;;;;;18.03;16.10;;;16.70;1.00;;;;;;5092596;28;20496;-79
2024/02/26 09:22:26;;;;;;;18.00;15.77;;;16.30;1.00;;;;;;5097669;28;20435;-83
2024/02/26 09:24:53;;;;;;;16.00;14.40;;;16.20;1.00;;;;;;5093054;28;20882;-77
2024/02/26 09:27:23;;;;;;;19.13;16.70;;;15.70;1.00;;;;;;5087930;27;20512;-76
2024/02/26 09:29:52;;;;;;;22.50;16.57;;;14.70;1.00;;;;;;5079542;27;20465;-75
2024/02/26 09:32:21;;;;;;;16.60;14.90;;;14.10;1.00;;;;;;5088995;27;20596;-76
2024/02/26 09:34:48;;;;;;;19.60;15.70;;;13.80;1.00;;;;;;5089193;28;20433;-76
2024/02/26 09:37:15;;;;;;;18.67;15.77;;;13.60;1.00;;;;;;5091366;28;20461;-75
2024/02/26 09:39:42;;;;;;;16.03;14.03;;;13.80;1.00;;;;;;5091894;28;20991;-76
2024/02/26 09:42:12;;;;;;;17.80;15.90;;;14.00;1.00;;;;;;5089020;28;20546;-77
2024/02/26 09:44:42;;;;;;;16.77;15.17;;;14.30;1.00;;;;;;5105051;27;20530;-74
2024/02/26 09:47:13;;;;;;;16.67;14.80;;;14.60;1.00;;;;;;5088449;28;20465;-75
2024/02/26 09:49:43;;;;;;;17.93;15.10;;;14.90;1.00;;;;;;5102174;27;20472;-77
2024/02/26 09:52:10;;;;;;;17.13;15.37;;;14.90;1.00;;;;;;5110981;27;20443;-77
2024/02/26 09:54:37;;;;;;;17.27;14.97;;;14.80;1.00;;;;;;5105653;27;20545;-79
2024/02/26 09:57:06;;;;;;;16.37;14.70;;;15.10;1.00;;;;;;5092098;28;20450;-77
2024/02/26 09:59:40;;;;;;;15.33;13.73;;;15.60;1.00;;;;;;5101893;27;20481;-80
2024/02/26 10:02:10;;;;;;;15.40;13.90;;;16.30;1.00;;;;;;5102918;28;20834;-77
2024/02/26 10:04:37;;;;;;;15.80;13.53;;;16.60;1.00;;;;;;5096302;28;20553;-76
2024/02/26 10:07:12;;;;;;;16.30;14.60;;;16.60;1.00;;;;;;5102166;28;20451;-82
2024/02/26 10:09:40;;;;;;;21.20;16.50;;;16.40;1.00;;;;;;5100747;28;20462;-78
2024/02/26 10:12:10;;;;;;;16.20;14.43;;;16.30;1.00;;;;;;5103948;27;20434;-78
2024/02/26 10:14:41;;;;;;;18.93;15.90;;;16.40;1.00;;;;;;5108784;27;20474;-80
2024/02/26 10:17:09;;;;;;;15.17;13.53;;;16.50;1.00;;;;;;5097897;28;20485;-79
2024/02/26 10:19:36;;;;;;;14.53;13.10;;;16.60;1.00;;;;;;5092410;28;21008;-76
2024/02/26 10:22:04;;;;;;;14.23;12.90;;;16.40;1.00;;;;;;5090963;28;20873;-76
2024/02/26 10:24:34;;;;;;;20.87;14.07;;;16.20;1.00;;;;;;5091060;28;20997;-76
2024/02/26 10:27:01;;;;;;;14.47;12.93;;;16.20;1.00;;;;;;5092477;28;20554;-76
2024/02/26 10:29:28;;;;;;;15.17;13.33;;;16.20;1.00;;;;;;5091978;28;21021;-76
2024/02/26 10:31:55;;;;;;;13.83;12.53;;;16.20;1.00;;;;;;5090845;28;20512;-75
2024/02/26 10:34:22;;;;;;;19.80;13.80;;;16.30;1.00;;;;;;5092131;28;21277;-76
2024/02/26 10:36:50;;;;;;;14.47;12.97;;;16.50;1.00;;;;;;5106820;27;20474;-75
2024/02/26 10:39:17;;;;;;;16.70;14.27;;;16.70;1.00;;;;;;5098817;27;20441;-76
2024/02/26 10:41:46;;;;;;;15.30;13.70;;;16.80;1.00;;;;;;5115946;27;20482;-77
2024/02/26 10:44:14;;;;;;;17.30;13.10;;;16.70;1.00;;;;;;5116265;27;20511;-76
2024/02/26 10:46:42;;;;;;;15.10;12.60;;;16.90;1.00;;;;;;5114160;27;20450;-75
2024/02/26 10:49:19;;;;;;;12.57;11.37;;;16.80;1.00;;;;;;5085385;28;20951;-74
2024/02/26 10:51:53;;;;;;;18.30;11.90;;;16.80;1.00;;;;;;5089306;27;20918;-76
2024/02/26 10:54:22;;;;;;;12.30;10.90;;;16.60;1.00;;;;;;5097746;27;20418;-73
2024/02/26 10:56:51;;;;;;;14.33;12.00;;;16.60;1.00;;;;;;5090500;27;20460;-74
2024/02/26 10:59:20;;;;;;;12.80;11.50;;;17.00;1.00;;;;;;5086945;28;20555;-75
2024/02/26 11:01:49;;;;;;;13.53;12.23;;;17.20;1.00;;;;;;5092319;28;20501;-74
2024/02/26 11:04:17;;;;;;;26.43;13.30;;;17.20;1.00;;;;;;5091274;28;20459;-73
2024/02/26 11:06:50;;;;;;;15.20;12.20;;;17.50;1.00;;;;;;5090605;28;20543;-74
2024/02/26 11:09:18;;;;;;;19.23;13.20;;;17.80;1.00;;;;;;5090730;28;20549;-73
2024/02/26 11:11:47;;;;;;;13.57;11.23;;;18.30;1.00;;;;;;5093113;28;20523;-73
2024/02/26 11:14:16;;;;;;;12.77;11.57;;;19.10;1.00;;;;;;5088710;28;20517;-73
2024/02/26 11:16:44;;;;;;;14.30;12.33;;;19.60;1.00;;;;;;5099966;27;20461;-75
2024/02/26 11:19:13;;;;;;;11.57;10.67;;;19.60;1.00;;;;;;5094905;27;20468;-74
2024/02/26 11:21:41;;;;;;;13.73;11.33;;;19.20;1.00;;;;;;5112419;27;20462;-75
2024/02/26 11:24:18;;;;;;;11.97;10.83;;;18.80;1.00;;;;;;5089367;28;20556;-74
2024/02/26 11:26:50;;;;;;;11.30;10.20;;;19.00;1.00;;;;;;5092843;28;20465;-75
2024/02/26 11:29:23;;;;;;;11.50;10.40;;;19.20;1.00;;;;;;5090409;28;20509;-73
2024/02/26 11:31:51;;;;;;;11.70;10.60;;;19.50;1.00;;;;;;5087691;28;20459;-74
2024/02/26 11:34:19;;;;;;;11.37;10.23;;;19.60;1.00;;;;;;5088548;28;20461;-74
2024/02/26 11:36:47;;;;;;;15.90;10.60;;;19.90;1.00;;;;;;5089726;28;20549;-74
2024/02/26 11:39:16;;;;;;;10.93;9.93;;;20.00;1.00;;;;;;5088352;28;20512;-74
2024/02/26 11:41:43;;;;;;;15.33;11.13;;;19.70;1.00;;;;;;5089078;27;20537;-75
2024/02/26 11:44:11;;;;;;;10.97;9.90;;;19.40;1.00;;;;;;5100249;27;20979;-75
2024/02/26 11:46:42;;;;;;;12.60;11.40;;;19.70;1.00;;;;;;5091305;28;20455;-74
2024/02/26 11:49:36;;;;;;;10.67;9.60;;;20.00;1.00;;;;;;5110570;27;20480;-74
2024/02/26 11:52:08;;;;;;;15.37;11.10;;;20.10;1.00;;;;;;5050891;28;20968;-75
2024/02/26 11:54:45;;;;;;;11.60;10.40;;;20.00;1.00;;;;;;5085654;28;20479;-76
2024/02/26 11:57:27;;;;;;;11.97;10.10;;;20.20;1.00;;;;;;5080291;27;20494;-75
2024/02/26 11:59:54;;;;;;;11.03;10.00;;;20.30;1.00;;;;;;5098684;27;20831;-74
2024/02/26 12:02:42;;;;;;;11.83;10.03;;;20.00;1.00;;;;;;5088129;27;20536;-75
2024/02/26 12:05:13;;;;;;;11.50;10.40;;;19.60;1.00;;;;;;5092816;28;20531;-75
2024/02/26 12:07:43;;;;;;;12.80;11.50;;;19.60;1.00;;;;;;5085413;27;20542;-75
2024/02/26 12:10:28;;;;;;;11.50;10.40;;;19.70;1.00;;;;;;5095476;27;20473;-74
2024/02/26 12:13:00;;;;;;;11.43;10.23;;;19.80;1.00;;;;;;5086108;28;20987;-76
2024/02/26 12:15:33;;;;;;;11.10;10.03;;;19.90;1.00;;;;;;5109244;27;21680;-74
2024/02/26 12:18:05;;;;;;;12.20;10.53;;;19.90;1.00;;;;;;5092737;28;20548;-74
2024/02/26 12:20:33;;;;;;;11.03;9.97;;;20.00;1.00;;;;;;5085138;28;20513;-74
2024/02/26 12:23:00;;;;;;;10.30;9.03;;;20.20;1.00;;;;;;5073401;28;20446;-75
2024/02/26 12:25:31;;;;;;;10.70;9.70;;;20.30;1.00;;;;;;5090923;28;20460;-74
2024/02/26 12:27:58;;;;;;;10.27;9.27;;;20.40;1.00;;;;;;5092130;28;20892;-75
2024/02/26 12:30:26;;;;;;;9.97;9.10;;;20.50;1.00;;;;;;5088926;28;20513;-74
2024/02/26 12:32:57;;;;;;;12.50;9.33;;;21.20;1.00;;;;;;5088273;28;20475;-75
2024/02/26 12:35:25;;;;;;;9.00;8.10;;;21.90;1.00;;;;;;5089340;28;20467;-74
2024/02/26 12:37:54;;;;;;;14.83;9.83;;;22.00;1.00;;;;;;5091557;27;20613;-74
2024/02/26 12:40:21;;;;;;;9.27;8.53;;;22.40;1.00;;;;;;5098966;28;20462;-74
2024/02/26 12:42:57;;;;;;;12.50;10.03;;;22.90;1.00;;;;;;5092835;28;20960;-72
2024/02/26 12:45:28;;;;;;;9.77;8.10;;;23.10;1.00;;;;;;5089309;28;20461;-74
2024/02/26 12:47:58;;;;;;;6.87;6.30;;;23.40;1.00;;;;;;5093026;27;20523;-74
2024/02/26 12:50:27;;;;;;;8.27;7.57;;;23.40;1.00;;;;;;5104725;27;20474;-75
2024/02/26 12:52:54;;;;;;;6.73;5.90;;;23.50;1.00;;;;;;5078901;28;20429;-74